createdAt,value
2023-02-21T00:00:09.853Z,5.7
2023-02-21T00:02:40.575Z,5.7
2023-02-21T00:05:11.217Z,5.5
2023-02-21T00:07:41.925Z,5.7
2023-02-21T00:12:52.605Z,5.6
2023-02-21T00:15:23.246Z,5.5
2023-02-21T00:17:53.879Z,5.3
2023-02-21T00:20:24.495Z,5.3
2023-02-21T00:22:55.100Z,5.2
2023-02-21T00:25:25.736Z,5.2
2023-02-21T00:28:06.349Z,4.9
2023-02-21T00:30:37.150Z,4.9
2023-02-21T00:33:08.289Z,4.7
2023-02-21T00:35:39.141Z,4.7
2023-02-21T00:40:39.759Z,4.4
2023-02-21T00:43:20.376Z,4.3
2023-02-21T00:45:51.123Z,4.1
2023-02-21T00:48:21.876Z,4.0
2023-02-21T00:50:52.527Z,3.9
2023-02-21T00:53:24.636Z,3.7
2023-02-21T00:56:05.310Z,3.7
2023-02-21T00:58:35.948Z,3.6
2023-02-21T01:01:06.612Z,3.5
2023-02-21T01:03:37.863Z,3.5
2023-02-21T01:06:08.517Z,3.5
2023-02-21T01:08:39.132Z,3.4
2023-02-21T01:11:19.763Z,3.4
2023-02-21T01:13:50.372Z,3.4
2023-02-21T01:16:21.004Z,3.3
2023-02-21T01:21:21.626Z,3.2
2023-02-21T01:23:52.228Z,3.1
2023-02-21T01:26:32.832Z,3.0
2023-02-21T01:29:03.449Z,2.9
2023-02-21T01:31:34.100Z,2.7
2023-02-21T01:34:04.759Z,2.8
2023-02-21T01:36:35.409Z,2.8
2023-02-21T01:39:06.063Z,2.8
2023-02-21T01:41:46.691Z,2.7
2023-02-21T01:44:17.299Z,2.7
2023-02-21T01:46:47.926Z,2.6
2023-02-21T01:49:18.529Z,2.5
2023-02-21T01:51:49.159Z,2.3
2023-02-21T01:54:29.751Z,2.3
2023-02-21T01:57:00.385Z,2.1
2023-02-21T02:02:01.016Z,1.9
2023-02-21T02:04:31.688Z,1.7
2023-02-21T02:07:02.638Z,1.5
2023-02-21T02:09:43.238Z,1.2
2023-02-21T02:12:13.862Z,1.0
2023-02-21T02:14:44.575Z,0.7
2023-02-21T02:17:16.570Z,0.5
2023-02-21T02:19:47.300Z,0.3
2023-02-21T02:22:18.215Z,0.2
2023-02-21T02:24:58.828Z,0.1
2023-02-21T02:27:29.424Z,-0.1
2023-02-21T02:30:00.113Z,-0.1
2023-02-21T02:32:30.872Z,-0.3
2023-02-21T02:35:01.499Z,-0.4
2023-02-21T02:37:32.134Z,-0.5
2023-02-21T02:42:42.808Z,-0.7
2023-02-21T02:45:13.431Z,-0.8
2023-02-21T02:47:44.083Z,-0.9
2023-02-21T02:50:14.709Z,-1.0
2023-02-21T02:52:55.332Z,-1.1
2023-02-21T02:55:25.944Z,-1.2
2023-02-21T02:57:56.550Z,-1.3
2023-02-21T03:00:27.181Z,-1.3
2023-02-21T03:02:57.807Z,-1.4
2023-02-21T03:05:28.533Z,-1.4
2023-02-21T03:08:09.149Z,-1.5
2023-02-21T03:10:39.759Z,-1.5
2023-02-21T03:13:10.399Z,-1.6
2023-02-21T03:15:51.091Z,-1.7
2023-02-21T03:18:11.880Z,-1.8
2023-02-21T03:23:32.574Z,-1.9
2023-02-21T03:26:03.209Z,-1.9
2023-02-21T03:28:33.891Z,-1.8
2023-02-21T03:31:04.538Z,-1.8
2023-02-21T03:33:35.584Z,-1.9
2023-02-21T03:36:06.229Z,-2.0
2023-02-21T03:38:46.851Z,-2.1
2023-02-21T03:41:17.603Z,-2.2
2023-02-21T03:43:48.233Z,-2.2
2023-02-21T03:46:18.916Z,-2.3
2023-02-21T03:48:51.304Z,-2.3
2023-02-21T03:51:21.903Z,-2.4
2023-02-21T03:54:02.531Z,-2.4
2023-02-21T03:56:41.440Z,-2.5
2023-02-21T03:59:02.218Z,-2.5
2023-02-21T04:04:02.997Z,-2.5
2023-02-21T04:06:43.615Z,-2.4
2023-02-21T04:09:14.258Z,-2.4
2023-02-21T04:11:44.886Z,-2.4
2023-02-21T04:14:15.689Z,-2.5
2023-02-21T04:16:46.332Z,-2.5
2023-02-21T04:19:16.971Z,-2.5
2023-02-21T04:21:57.588Z,-2.5
2023-02-21T04:24:28.466Z,-2.5
2023-02-21T04:26:59.069Z,-2.4
2023-02-21T04:29:29.703Z,-2.4
2023-02-21T04:32:00.430Z,-2.4
2023-02-21T04:34:31.416Z,-2.5
2023-02-21T04:37:12.065Z,-2.5
2023-02-21T04:39:42.695Z,-2.5
2023-02-21T04:44:49.068Z,-2.5
2023-02-21T04:47:12.497Z,-2.5
2023-02-21T04:49:43.120Z,-2.5
2023-02-21T04:52:23.740Z,-2.6
2023-02-21T04:54:54.423Z,-2.6
2023-02-21T04:57:25.105Z,-2.6
2023-02-21T04:59:55.752Z,-2.5
2023-02-21T05:02:26.362Z,-2.5
2023-02-21T05:04:57.057Z,-2.5
2023-02-21T05:07:37.757Z,-2.5
2023-02-21T05:10:08.387Z,-2.5
2023-02-21T05:12:44.843Z,-2.6
2023-02-21T05:15:15.499Z,-2.7
2023-02-21T05:17:46.112Z,-2.7
2023-02-21T05:20:26.757Z,-2.6
2023-02-21T05:25:27.382Z,-2.6
2023-02-21T05:27:58.002Z,-2.6
2023-02-21T05:30:28.673Z,-2.7
2023-02-21T05:32:59.684Z,-2.8
2023-02-21T05:35:40.315Z,-2.8
2023-02-21T05:38:11.067Z,-2.7
2023-02-21T05:40:41.708Z,-2.7
2023-02-21T05:43:12.367Z,-2.7
2023-02-21T05:45:43.043Z,-2.8
2023-02-21T05:48:13.795Z,-2.8
2023-02-21T05:50:54.432Z,-2.8
2023-02-21T05:53:25.324Z,-2.8
2023-02-21T05:55:55.927Z,-2.7
2023-02-21T05:58:26.573Z,-2.7
2023-02-21T06:00:57.167Z,-2.8
2023-02-21T06:06:08.141Z,-2.7
2023-02-21T06:08:38.743Z,-2.8
2023-02-21T06:13:39.373Z,-2.8
2023-02-21T06:16:10.033Z,-2.8
2023-02-21T06:18:40.680Z,-2.7
2023-02-21T06:21:21.327Z,-2.8
2023-02-21T06:23:51.919Z,-2.8
2023-02-21T06:26:22.565Z,-2.8
2023-02-21T06:28:53.220Z,-2.9
2023-02-21T06:31:23.972Z,-2.9
2023-02-21T06:34:04.793Z,-2.9
2023-02-21T06:36:35.403Z,-2.9
2023-02-21T06:39:06.034Z,-2.9
2023-02-21T06:41:36.661Z,-2.9
2023-02-21T06:46:37.318Z,-2.5
2023-02-21T06:49:17.951Z,-2.5
2023-02-21T06:51:48.586Z,-2.5
2023-02-21T06:54:19.201Z,-2.4
2023-02-21T06:56:49.884Z,-2.4
2023-02-21T06:59:20.561Z,-2.3
2023-02-21T07:01:51.219Z,-2.1
2023-02-21T07:04:32.054Z,-2.1
2023-02-21T07:07:02.865Z,-1.9
2023-02-21T07:09:33.459Z,-1.6
2023-02-21T07:14:44.098Z,-1.4
2023-02-21T07:17:14.730Z,-1.4
2023-02-21T07:19:55.355Z,-1.2
2023-02-21T07:22:26.035Z,-1.2
2023-02-21T07:27:26.718Z,-0.8
2023-02-21T07:29:57.335Z,-0.6
2023-02-21T07:32:38.040Z,-0.5
2023-02-21T07:35:08.693Z,-0.4
2023-02-21T07:37:39.317Z,-0.2
2023-02-21T07:40:09.958Z,-0.2
2023-02-21T07:42:40.568Z,0.0
2023-02-21T07:45:11.210Z,0.0
2023-02-21T07:47:51.820Z,0.1
2023-02-21T07:50:22.422Z,0.3
2023-02-21T07:52:53.052Z,0.7
2023-02-21T07:55:23.677Z,1.1
2023-02-21T07:57:54.292Z,1.4
2023-02-21T08:00:24.916Z,1.6
2023-02-21T08:03:06.430Z,1.7
2023-02-21T08:08:07.094Z,2.2
2023-02-21T08:10:37.734Z,2.3
2023-02-21T08:13:08.342Z,2.5
2023-02-21T08:15:38.952Z,2.6
2023-02-21T08:18:19.653Z,2.8
2023-02-21T08:20:50.294Z,2.8
2023-02-21T08:23:20.906Z,3.0
2023-02-21T08:25:51.527Z,3.0
2023-02-21T08:28:22.182Z,3.1
2023-02-21T08:31:02.812Z,3.2
2023-02-21T08:33:33.692Z,3.3
2023-02-21T08:36:04.303Z,3.5
2023-02-21T08:38:34.940Z,3.6
2023-02-21T08:41:05.582Z,3.7
2023-02-21T08:43:36.679Z,3.9
2023-02-21T08:48:47.370Z,4.2
2023-02-21T08:51:18.106Z,4.4
2023-02-21T08:53:48.892Z,4.5
2023-02-21T08:56:19.505Z,4.6
2023-02-21T08:58:50.144Z,4.7
2023-02-21T09:01:30.943Z,4.8
2023-02-21T09:04:01.629Z,4.9
2023-02-21T09:06:34.823Z,5.2
2023-02-21T09:09:05.435Z,5.3
2023-02-21T09:11:36.043Z,5.4
2023-02-21T09:14:06.684Z,5.5
2023-02-21T09:16:47.973Z,5.7
2023-02-21T09:19:18.699Z,5.9
2023-02-21T09:21:49.341Z,6.1
2023-02-21T09:24:22.109Z,6.3
2023-02-21T09:29:44.003Z,6.7
2023-02-21T09:31:56.074Z,6.8
2023-02-21T09:34:26.987Z,6.9
2023-02-21T09:36:57.642Z,7.0
2023-02-21T09:39:28.543Z,7.0
2023-02-21T09:41:59.221Z,7.2
2023-02-21T09:44:39.843Z,7.2
2023-02-21T09:47:10.483Z,7.4
2023-02-21T09:49:41.096Z,7.4
2023-02-21T09:52:11.716Z,7.6
2023-02-21T09:54:42.329Z,7.6
2023-02-21T09:57:12.968Z,7.6
2023-02-21T10:00:03.614Z,7.6
2023-02-21T10:02:34.266Z,7.6
2023-02-21T10:05:04.983Z,7.6
2023-02-21T10:10:05.691Z,7.7
2023-02-21T10:12:46.332Z,7.9
2023-02-21T10:15:16.954Z,8.1
2023-02-21T10:17:47.581Z,8.2
2023-02-21T10:20:18.210Z,8.3
2023-02-21T10:22:48.853Z,8.3
2023-02-21T10:25:19.533Z,8.5
2023-02-21T10:28:00.187Z,8.6
2023-02-21T10:30:30.883Z,8.7
2023-02-21T10:33:01.876Z,8.8
2023-02-21T10:35:32.513Z,9.0
2023-02-21T10:38:03.125Z,9.2
2023-02-21T10:40:33.746Z,9.4
2023-02-21T10:43:14.374Z,9.6
2023-02-21T10:45:46.775Z,9.6
2023-02-21T10:50:47.670Z,10.0
2023-02-21T10:53:18.391Z,10.0
2023-02-21T10:55:59.079Z,10.0
2023-02-21T10:58:29.793Z,10.2
2023-02-21T11:01:00.546Z,10.4
2023-02-21T11:03:31.268Z,10.5
2023-02-21T11:06:02.068Z,10.8
2023-02-21T11:08:32.697Z,10.8
2023-02-21T11:11:13.579Z,10.9
2023-02-21T11:13:37.209Z,10.9
2023-02-21T11:16:07.868Z,11.0
2023-02-21T11:18:38.517Z,10.8
2023-02-21T11:21:09.257Z,10.8
2023-02-21T11:23:39.888Z,10.6
2023-02-21T11:26:20.514Z,10.4
2023-02-21T11:31:21.247Z,10.9
2023-02-21T11:33:52.224Z,11.1
2023-02-21T11:36:22.863Z,11.1
2023-02-21T11:38:53.513Z,11.1
2023-02-21T11:41:34.132Z,11.2
2023-02-21T11:44:14.751Z,11.3
2023-02-21T11:46:45.438Z,11.2
2023-02-21T11:49:16.040Z,11.3
2023-02-21T11:51:46.675Z,11.4
2023-02-21T11:54:17.278Z,11.4
2023-02-21T11:56:57.915Z,11.4
2023-02-21T11:59:28.573Z,11.4
2023-02-21T12:01:59.168Z,11.5
2023-02-21T12:04:29.806Z,11.6
2023-02-21T12:07:00.462Z,11.6
2023-02-21T12:12:11.065Z,11.6
2023-02-21T12:14:41.710Z,11.6
2023-02-21T12:17:14.674Z,11.7
2023-02-21T12:19:45.701Z,11.5
2023-02-21T12:22:16.342Z,11.3
2023-02-21T12:24:56.969Z,11.6
2023-02-21T12:27:27.613Z,11.8
2023-02-21T12:29:58.267Z,11.9
2023-02-21T12:32:28.960Z,11.7
2023-02-21T12:34:59.582Z,11.8
2023-02-21T12:37:30.294Z,11.9
2023-02-21T12:40:10.951Z,11.8
2023-02-21T12:42:41.585Z,12.0
2023-02-21T12:45:12.379Z,12.1
2023-02-21T12:47:42.996Z,12.1
2023-02-21T12:52:43.627Z,12.3
2023-02-21T12:55:24.306Z,12.4
2023-02-21T12:57:54.910Z,12.4
2023-02-21T13:00:25.552Z,12.4
2023-02-21T13:02:56.475Z,12.3
2023-02-21T13:05:27.192Z,12.3
2023-02-21T13:07:57.859Z,12.4
2023-02-21T13:10:38.468Z,12.4
2023-02-21T13:13:09.106Z,12.3
2023-02-21T13:15:39.776Z,12.4
2023-02-21T13:18:10.469Z,12.4
2023-02-21T13:20:41.084Z,12.8
2023-02-21T13:23:21.711Z,13.0
2023-02-21T13:25:52.319Z,13.0
2023-02-21T13:28:22.927Z,12.8
2023-02-21T13:33:23.533Z,13.0
2023-02-21T13:35:54.223Z,12.8
2023-02-21T13:38:34.833Z,12.8
2023-02-21T13:41:05.451Z,12.9
2023-02-21T13:43:36.353Z,12.8
2023-02-21T13:46:06.996Z,12.9
2023-02-21T13:48:37.700Z,13.2
2023-02-21T13:51:08.313Z,13.2
2023-02-21T13:53:48.926Z,13.1
2023-02-21T13:56:19.555Z,13.0
2023-02-21T13:58:50.172Z,13.2
2023-02-21T14:01:20.771Z,13.2
2023-02-21T14:03:51.458Z,13.4
2023-02-21T14:06:22.225Z,13.6
2023-02-21T14:09:02.826Z,13.9
2023-02-21T14:14:03.447Z,14.0
2023-02-21T14:16:34.157Z,14.1
2023-02-21T14:21:36.618Z,13.7
2023-02-21T14:24:17.267Z,13.8
2023-02-21T14:26:47.879Z,13.8
2023-02-21T14:29:18.543Z,14.0
2023-02-21T14:31:49.365Z,13.9
2023-02-21T14:34:20.315Z,13.9
2023-02-21T14:37:00.936Z,14.0
2023-02-21T14:39:31.556Z,13.9
2023-02-21T14:42:02.259Z,14.0
2023-02-21T14:44:32.871Z,14.2
2023-02-21T14:47:03.479Z,14.0
2023-02-21T14:49:34.102Z,14.1
2023-02-21T14:54:44.735Z,13.8
2023-02-21T14:57:15.337Z,14.0
2023-02-21T14:59:45.937Z,14.2
2023-02-21T15:02:16.588Z,14.4
2023-02-21T15:04:47.230Z,14.5
2023-02-21T15:07:27.862Z,14.4
2023-02-21T15:09:58.502Z,14.5
2023-02-21T15:12:29.093Z,14.4
2023-02-21T15:14:59.696Z,14.4
2023-02-21T15:17:40.330Z,14.2
2023-02-21T15:20:10.944Z,14.4
2023-02-21T15:22:51.556Z,14.2
2023-02-21T15:25:22.193Z,13.8
2023-02-21T15:27:52.814Z,13.8
2023-02-21T15:30:23.527Z,13.5
2023-02-21T15:35:24.401Z,13.1
2023-02-21T15:38:05.014Z,12.7
2023-02-21T15:40:35.636Z,12.5
2023-02-21T15:43:06.287Z,12.4
2023-02-21T15:45:36.980Z,12.2
2023-02-21T15:48:09.063Z,12.1
2023-02-21T15:50:49.710Z,11.9
2023-02-21T15:53:20.353Z,11.7
2023-02-21T15:55:51.018Z,11.7
2023-02-21T15:58:21.609Z,11.6
2023-02-21T16:00:52.237Z,11.5
2023-02-21T16:03:23.030Z,11.4
2023-02-21T16:06:03.645Z,11.3
2023-02-21T16:08:34.255Z,11.2
2023-02-21T16:11:04.905Z,11.2
2023-02-21T16:16:05.895Z,11.0
2023-02-21T16:18:36.565Z,10.9
2023-02-21T16:21:17.317Z,10.7
2023-02-21T16:23:48.015Z,10.6
2023-02-21T16:26:18.635Z,10.4
2023-02-21T16:28:49.230Z,10.2
2023-02-21T16:31:19.977Z,10.0
2023-02-21T16:33:50.786Z,9.9
2023-02-21T16:36:31.396Z,9.7
2023-02-21T16:39:02.011Z,9.5
2023-02-21T16:41:32.630Z,9.3
2023-02-21T16:44:03.245Z,9.2
2023-02-21T16:46:33.885Z,9.1
2023-02-21T16:49:04.568Z,8.9
2023-02-21T16:51:45.185Z,8.8
2023-02-21T16:56:45.816Z,8.4
2023-02-21T16:59:16.489Z,8.3
2023-02-21T17:01:47.162Z,8.2
2023-02-21T17:04:27.843Z,8.0
2023-02-21T17:06:58.506Z,7.9
2023-02-21T17:09:29.148Z,7.7
2023-02-21T17:11:59.763Z,7.4
2023-02-21T17:14:30.368Z,7.2
2023-02-21T17:17:01.004Z,7.0
2023-02-21T17:19:41.608Z,6.8
2023-02-21T17:22:12.262Z,6.6
2023-02-21T17:24:42.897Z,6.5
2023-02-21T17:27:13.592Z,6.4
2023-02-21T17:29:44.218Z,6.2
2023-02-21T17:32:16.275Z,6.1
2023-02-21T17:37:27.155Z,5.8
2023-02-21T17:39:57.794Z,5.7
2023-02-21T17:42:28.392Z,5.6
2023-02-21T17:44:59.085Z,5.6
2023-02-21T17:47:30.023Z,5.6
2023-02-21T17:50:10.643Z,5.6
2023-02-21T17:52:41.259Z,5.6
2023-02-21T17:55:11.886Z,5.6
2023-02-21T17:57:42.488Z,5.4
2023-02-21T18:00:13.114Z,5.3
2023-02-21T18:02:53.853Z,5.4
2023-02-21T18:05:24.558Z,5.6
2023-02-21T18:07:55.244Z,5.6
2023-02-21T18:10:25.984Z,5.4
2023-02-21T18:12:56.607Z,5.2
2023-02-21T18:18:08.283Z,4.9
2023-02-21T18:20:38.985Z,4.8
2023-02-21T18:23:09.610Z,4.7
2023-02-21T18:25:40.220Z,4.7
2023-02-21T18:28:10.857Z,4.3
2023-02-21T18:30:41.539Z,4.1
2023-02-21T18:33:22.210Z,4.0
2023-02-21T18:35:52.842Z,3.9
2023-02-21T18:38:23.484Z,3.9
2023-02-21T18:40:54.104Z,3.9
2023-02-21T18:43:25.173Z,3.7
2023-02-21T18:45:55.794Z,3.7
2023-02-21T18:48:36.416Z,3.5
2023-02-21T18:51:07.052Z,3.4
2023-02-21T18:53:38.232Z,3.3
2023-02-21T18:58:38.918Z,3.1
2023-02-21T19:01:11.784Z,2.9
2023-02-21T19:03:52.673Z,2.9
2023-02-21T19:06:23.396Z,2.8
2023-02-21T19:08:53.981Z,2.8
2023-02-21T19:11:24.597Z,2.7
2023-02-21T19:13:55.231Z,2.6
2023-02-21T19:16:36.010Z,2.5
2023-02-21T19:19:06.647Z,2.4
2023-02-21T19:21:37.284Z,2.3
2023-02-21T19:24:07.888Z,2.3
2023-02-21T19:26:38.605Z,2.3
2023-02-21T19:29:09.422Z,2.2
2023-02-21T19:31:50.110Z,2.1
2023-02-21T19:39:21.003Z,2.1
2023-02-21T19:41:51.673Z,2.1
2023-02-21T19:44:22.283Z,2.1
2023-02-21T19:47:02.918Z,2.1
2023-02-21T19:49:33.535Z,2.0
2023-02-21T19:52:04.205Z,2.0
2023-02-21T19:54:34.807Z,2.1
2023-02-21T19:57:05.439Z,2.1
2023-02-21T19:59:46.106Z,2.0
2023-02-21T20:02:26.722Z,1.9
2023-02-21T20:04:57.343Z,1.8
2023-02-21T20:07:27.977Z,1.8
2023-02-21T20:09:58.600Z,1.7
2023-02-21T20:12:29.294Z,1.5
2023-02-21T20:15:09.916Z,1.5
2023-02-21T20:20:10.533Z,1.5
2023-02-21T20:22:41.183Z,1.5
2023-02-21T20:25:11.793Z,1.4
2023-02-21T20:27:42.402Z,1.3
2023-02-21T20:30:24.931Z,1.2
2023-02-21T20:32:56.072Z,1.2
2023-02-21T20:35:26.705Z,1.2
2023-02-21T20:37:57.352Z,1.2
2023-02-21T20:40:27.985Z,1.4
2023-02-21T20:42:58.587Z,1.5
2023-02-21T20:45:39.291Z,1.6
2023-02-21T20:48:10.093Z,1.6
2023-02-21T20:50:40.715Z,1.6
2023-02-21T20:53:11.353Z,1.9
2023-02-21T20:55:41.961Z,1.9
2023-02-21T21:00:52.616Z,1.5
2023-02-21T21:03:23.345Z,1.3
2023-02-21T21:05:53.960Z,0.9
2023-02-21T21:08:25.266Z,0.7
2023-02-21T21:10:55.912Z,0.6
2023-02-21T21:13:27.051Z,0.5
2023-02-21T21:16:07.714Z,0.4
2023-02-21T21:18:38.348Z,0.4
2023-02-21T21:21:08.985Z,0.3
2023-02-21T21:23:39.667Z,0.4
2023-02-21T21:26:10.346Z,0.4
2023-02-21T21:28:50.957Z,0.3
2023-02-21T21:31:21.601Z,0.4
2023-02-21T21:33:52.412Z,0.3
2023-02-21T21:36:23.049Z,0.3
2023-02-21T21:41:23.654Z,0.2
2023-02-21T21:44:04.261Z,0.2
2023-02-21T21:46:34.932Z,0.2
2023-02-21T21:49:05.544Z,0.3
2023-02-21T21:51:36.395Z,0.4
2023-02-21T21:54:07.013Z,0.5
2023-02-21T21:56:37.637Z,0.7
2023-02-21T21:59:18.254Z,0.5
2023-02-21T22:01:48.880Z,0.4
2023-02-21T22:04:19.528Z,0.5
2023-02-21T22:06:50.158Z,0.3
2023-02-21T22:09:20.750Z,0.3
2023-02-21T22:11:51.380Z,0.2
2023-02-21T22:14:31.991Z,0.1
2023-02-21T22:17:02.626Z,0.0
2023-02-21T22:22:03.395Z,-0.1
2023-02-21T22:24:34.011Z,-0.1
2023-02-21T22:27:14.656Z,-0.2
2023-02-21T22:29:45.254Z,-0.2
2023-02-21T22:32:15.936Z,-0.3
2023-02-21T22:34:46.618Z,-0.3
2023-02-21T22:37:17.241Z,-0.3
2023-02-21T22:39:47.855Z,-0.3
2023-02-21T22:42:28.531Z,-0.4
2023-02-21T22:44:59.152Z,-0.4
2023-02-21T22:47:29.766Z,-0.4
2023-02-21T22:50:00.374Z,-0.5
2023-02-21T22:52:30.999Z,-0.4
2023-02-21T22:55:01.606Z,-0.4
2023-02-21T22:57:42.203Z,-0.3
2023-02-21T23:02:42.862Z,0.1
2023-02-21T23:05:13.768Z,-0.1
2023-02-21T23:07:44.423Z,-0.1
2023-02-21T23:10:15.024Z,-0.2
2023-02-21T23:12:55.658Z,-0.3
2023-02-21T23:15:26.290Z,-0.5
2023-02-21T23:17:56.969Z,-0.5
2023-02-21T23:20:37.581Z,-0.5
2023-02-21T23:23:08.309Z,-0.5
2023-02-21T23:25:38.996Z,-0.5
2023-02-21T23:28:19.706Z,-0.5
2023-02-21T23:30:50.370Z,-0.5
2023-02-21T23:33:21.104Z,-0.3
2023-02-21T23:35:51.724Z,-0.3
2023-02-21T23:38:22.886Z,-0.3
2023-02-21T23:43:33.663Z,-0.4
2023-02-21T23:46:04.267Z,-0.5
2023-02-21T23:48:34.930Z,-0.5
2023-02-21T23:51:05.620Z,-0.7
2023-02-21T23:53:36.664Z,-0.7
2023-02-21T23:56:17.373Z,-0.8
2023-02-21T23:58:48.019Z,-0.9
